Time;durP1;ratioP1;P1;durP2;ratioP2;P2;SDS_P1;SDS_P2;PMS_P1;PMS_P2;Temp;Humidity;BMP_temperature;BMP_pressure;BME280_temperature;BME280_humidity;BME280_pressure;Samples;Min_cycle;Max_cycle;Signal;HPM_P1;HPM_P2
2023/12/20 00:01:06;;;;;;;365.05;219.77;;;0.70;99.90;;;;;;4952606;28;20050;-77
2023/12/20 00:03:34;;;;;;;383.45;229.52;;;0.60;1.00;;;;;;4947522;28;20094;-76
2023/12/20 00:06:01;;;;;;;346.95;205.23;;;0.50;1.00;;;;;;4964197;28;20082;-76
2023/12/20 00:08:29;;;;;;;365.70;216.98;;;0.60;99.90;;;;;;4946209;28;20057;-78
2023/12/20 00:10:56;;;;;;;335.17;201.98;;;0.70;99.90;;;;;;4961165;28;20103;-77
2023/12/20 00:13:25;;;;;;;336.67;197.40;;;0.70;99.90;;;;;;4953433;28;20079;-75
2023/12/20 00:15:53;;;;;;;323.50;189.18;;;0.70;1.00;;;;;;4962424;28;20129;-73
2023/12/20 00:18:21;;;;;;;323.38;190.95;;;0.60;1.00;;;;;;4983709;28;20042;-74
2023/12/20 00:20:50;;;;;;;328.02;189.10;;;0.50;1.00;;;;;;4969380;28;20042;-73
2023/12/20 00:23:19;;;;;;;300.98;175.07;;;0.50;1.00;;;;;;4954859;28;20062;-79
2023/12/20 00:25:47;;;;;;;289.50;168.07;;;0.50;1.00;;;;;;4944955;28;20096;-76
2023/12/20 00:28:14;;;;;;;287.48;166.05;;;0.40;99.90;;;;;;4964659;28;20039;-77
2023/12/20 00:30:43;;;;;;;296.08;175.15;;;0.40;1.00;;;;;;4961770;28;20566;-78
2023/12/20 00:33:11;;;;;;;321.17;191.15;;;0.40;1.00;;;;;;4965753;28;20070;-77
2023/12/20 00:35:38;;;;;;;321.85;193.60;;;0.40;99.90;;;;;;4945648;29;20162;-77
2023/12/20 00:38:06;;;;;;;322.40;195.15;;;0.40;1.00;;;;;;4946085;28;20499;-77
2023/12/20 00:40:34;;;;;;;323.60;196.02;;;0.40;1.00;;;;;;4963123;28;20066;-77
2023/12/20 00:43:02;;;;;;;289.13;174.48;;;0.40;1.00;;;;;;4963667;28;20047;-75
2023/12/20 00:45:29;;;;;;;272.88;158.27;;;0.40;99.90;;;;;;4949682;28;20047;-73
2023/12/20 00:47:59;;;;;;;242.98;144.05;;;0.40;1.00;;;;;;4955694;28;20074;-77
2023/12/20 00:50:26;;;;;;;245.73;143.25;;;0.50;1.00;;;;;;4960553;28;20050;-76
2023/12/20 00:52:54;;;;;;;232.75;136.32;;;0.50;1.00;;;;;;4944499;28;20106;-74
2023/12/20 00:55:22;;;;;;;227.95;136.00;;;0.50;1.00;;;;;;4943533;28;20055;-77
2023/12/20 00:57:49;;;;;;;243.70;144.85;;;0.40;1.00;;;;;;4963433;28;20509;-76
2023/12/20 01:00:17;;;;;;;238.07;140.32;;;0.40;1.00;;;;;;4961953;28;20043;-76
2023/12/20 01:02:46;;;;;;;239.65;141.00;;;0.30;1.00;;;;;;4962396;28;20095;-78
2023/12/20 01:05:16;;;;;;;235.65;134.40;;;0.30;1.00;;;;;;4943272;28;20039;-76
2023/12/20 01:07:44;;;;;;;223.35;127.53;;;0.30;99.90;;;;;;4963208;28;20058;-78
2023/12/20 01:10:11;;;;;;;208.15;124.70;;;0.20;1.00;;;;;;4947752;28;20050;-75
2023/12/20 01:12:39;;;;;;;221.75;132.52;;;0.10;1.00;;;;;;4966116;28;20043;-76
2023/12/20 01:15:07;;;;;;;228.50;129.73;;;0.00;99.90;;;;;;4949703;28;20051;-75
2023/12/20 01:17:35;;;;;;;229.68;134.05;;;0.00;1.00;;;;;;4970887;28;20039;-74
2023/12/20 01:20:02;;;;;;;235.50;136.57;;;0.00;1.00;;;;;;4988589;28;20098;-73
2023/12/20 01:22:31;;;;;;;238.27;142.23;;;0.00;1.00;;;;;;4968763;28;20062;-73
2023/12/20 01:24:59;;;;;;;249.18;144.43;;;0.00;99.90;;;;;;4964564;28;20050;-77
2023/12/20 01:27:26;;;;;;;245.55;142.57;;;-0.10;1.00;;;;;;4967734;28;20126;-77
2023/12/20 01:29:54;;;;;;;238.98;139.00;;;-0.10;1.00;;;;;;4949307;28;20043;-76
2023/12/20 01:32:21;;;;;;;256.42;144.98;;;-0.10;50.80;;;;;;4966934;28;20043;-77
2023/12/20 01:34:49;;;;;;;243.43;139.55;;;0.00;99.90;;;;;;4968599;28;20102;-77
2023/12/20 01:37:17;;;;;;;240.60;135.60;;;0.00;1.00;;;;;;4966659;28;20126;-76
2023/12/20 01:39:46;;;;;;;240.98;135.90;;;0.00;1.00;;;;;;4950294;28;20050;-76
2023/12/20 01:42:14;;;;;;;234.35;131.75;;;-0.10;71.60;;;;;;4965625;28;20503;-76
2023/12/20 01:44:41;;;;;;;217.32;122.80;;;-0.10;1.00;;;;;;4953385;28;20053;-75
2023/12/20 01:47:09;;;;;;;223.00;126.00;;;0.00;99.90;;;;;;4956414;28;20078;-79
2023/12/20 01:49:37;;;;;;;227.70;130.82;;;0.00;1.00;;;;;;4967534;28;20558;-73
2023/12/20 01:52:05;;;;;;;244.25;138.32;;;0.00;99.90;;;;;;4969110;28;20039;-76
2023/12/20 01:54:33;;;;;;;235.57;135.52;;;0.00;1.00;;;;;;4984805;28;20059;-75
2023/12/20 01:57:03;;;;;;;236.20;137.50;;;0.00;1.00;;;;;;4989673;28;20063;-78
2023/12/20 01:59:31;;;;;;;230.93;134.98;;;-0.10;1.00;;;;;;4966902;28;20043;-76
2023/12/20 02:02:00;;;;;;;236.00;140.55;;;-0.20;99.90;;;;;;4949948;28;20438;-77
2023/12/20 02:04:28;;;;;;;241.70;143.43;;;-0.10;1.00;;;;;;4966033;28;20090;-77
2023/12/20 02:06:57;;;;;;;232.05;134.25;;;-0.20;99.90;;;;;;4967813;28;20110;-78
2023/12/20 02:09:24;;;;;;;209.85;122.90;;;-0.30;99.90;;;;;;4967158;28;20117;-76
2023/12/20 02:11:52;;;;;;;207.90;126.65;;;-0.30;1.00;;;;;;4950397;28;20109;-76
2023/12/20 02:14:21;;;;;;;214.00;127.57;;;-0.20;1.00;;;;;;4949141;28;20046;-79
2023/12/20 02:16:49;;;;;;;230.40;132.52;;;-0.10;1.00;;;;;;4959542;28;20070;-79
2023/12/20 02:19:18;;;;;;;219.65;129.25;;;-0.10;1.00;;;;;;4969431;28;20074;-79
2023/12/20 02:21:47;;;;;;;204.13;119.72;;;-0.10;1.00;;;;;;4968851;28;20410;-78
2023/12/20 02:24:15;;;;;;;200.25;115.70;;;-0.10;99.90;;;;;;4968336;28;20047;-74
2023/12/20 02:26:43;;;;;;;185.32;110.85;;;-0.10;1.00;;;;;;4946419;28;20483;-79
2023/12/20 02:29:10;;;;;;;168.98;99.47;;;-0.10;99.90;;;;;;4955543;28;20047;-77
2023/12/20 02:31:38;;;;;;;152.13;91.50;;;-0.20;99.90;;;;;;4968081;28;20047;-78
2023/12/20 02:34:05;;;;;;;133.10;80.90;;;-0.10;99.90;;;;;;4949770;28;20062;-76
2023/12/20 02:36:33;;;;;;;148.95;85.65;;;-0.20;99.90;;;;;;4971579;28;20043;-76
2023/12/20 02:39:02;;;;;;;146.32;88.28;;;-0.10;99.90;;;;;;4987850;28;20027;-76
2023/12/20 02:41:30;;;;;;;152.57;90.85;;;-0.20;1.00;;;;;;4971325;28;20059;-75
2023/12/20 02:43:57;;;;;;;162.65;99.05;;;-0.20;28.40;;;;;;4980831;28;20050;-74
2023/12/20 02:46:25;;;;;;;166.52;101.13;;;-0.20;99.90;;;;;;4974510;28;20502;-74
2023/12/20 02:48:52;;;;;;;177.40;106.82;;;-0.20;99.90;;;;;;4967516;28;20055;-76
2023/12/20 02:51:20;;;;;;;178.38;108.63;;;-0.20;99.90;;;;;;4971217;28;20463;-74
2023/12/20 02:53:47;;;;;;;183.88;109.82;;;-0.30;1.00;;;;;;4945798;28;20042;-77
2023/12/20 02:56:16;;;;;;;176.30;104.03;;;-0.20;1.00;;;;;;4964805;28;20047;-78
2023/12/20 02:58:44;;;;;;;155.32;94.53;;;-0.20;1.00;;;;;;4969616;28;20035;-76
2023/12/20 03:01:11;;;;;;;159.93;98.38;;;-0.30;1.00;;;;;;4947188;28;20491;-75
2023/12/20 03:03:39;;;;;;;158.95;95.63;;;-0.30;1.00;;;;;;4956084;28;20405;-78
2023/12/20 03:06:06;;;;;;;156.05;93.40;;;-0.30;99.90;;;;;;4968172;28;20050;-73
2023/12/20 03:08:34;;;;;;;150.73;90.68;;;-0.30;1.00;;;;;;4968806;28;20682;-76
2023/12/20 03:11:01;;;;;;;153.02;92.03;;;-0.30;76.90;;;;;;4962069;28;20051;-75
2023/12/20 03:13:30;;;;;;;144.95;86.22;;;-0.40;99.90;;;;;;4983986;28;20464;-77
2023/12/20 03:15:58;;;;;;;143.95;86.50;;;-0.30;99.90;;;;;;4949420;28;20078;-76
2023/12/20 03:18:27;;;;;;;138.52;82.07;;;-0.30;99.90;;;;;;4964323;28;20448;-77
2023/12/20 03:20:55;;;;;;;132.40;79.22;;;-0.20;1.00;;;;;;4966228;28;20067;-75
2023/12/20 03:23:23;;;;;;;128.70;77.10;;;-0.20;99.90;;;;;;4932586;28;20055;-75
2023/12/20 03:25:50;;;;;;;128.10;74.93;;;-0.30;1.00;;;;;;4964002;28;20047;-76
2023/12/20 03:28:18;;;;;;;132.00;80.47;;;-0.30;1.00;;;;;;4964060;28;20051;-76
2023/12/20 03:30:47;;;;;;;141.32;85.43;;;-0.30;1.00;;;;;;4955488;28;20760;-75
2023/12/20 03:33:14;;;;;;;142.38;87.40;;;-0.40;1.00;;;;;;4966098;28;20086;-77
2023/12/20 03:35:42;;;;;;;146.05;91.10;;;-0.30;99.90;;;;;;4960837;28;20047;-79
2023/12/20 03:38:10;;;;;;;150.82;91.85;;;-0.30;17.00;;;;;;4943877;28;20495;-76
2023/12/20 03:40:37;;;;;;;151.68;91.30;;;-0.30;87.30;;;;;;4950386;28;20038;-76
2023/12/20 03:43:05;;;;;;;133.23;81.13;;;-0.30;1.00;;;;;;4946987;28;20523;-76
2023/12/20 03:45:32;;;;;;;129.63;78.25;;;-0.30;1.00;;;;;;4971107;28;20101;-76
2023/12/20 03:48:01;;;;;;;116.32;67.35;;;-0.30;1.00;;;;;;4946904;28;20047;-78
2023/12/20 03:50:30;;;;;;;110.22;64.70;;;-0.30;1.00;;;;;;4967552;28;20043;-75
2023/12/20 03:52:58;;;;;;;118.65;67.25;;;-0.30;1.00;;;;;;4950565;28;20631;-77
2023/12/20 03:55:25;;;;;;;111.90;66.93;;;-0.40;99.90;;;;;;4948498;29;20039;-75
2023/12/20 03:57:53;;;;;;;125.10;69.72;;;-0.50;99.90;;;;;;4968544;28;20047;-75
2023/12/20 04:00:21;;;;;;;130.70;76.63;;;-0.50;1.00;;;;;;4971693;28;20034;-75
2023/12/20 04:02:48;;;;;;;152.15;84.45;;;-0.50;1.00;;;;;;4980871;28;20042;-75
2023/12/20 04:05:17;;;;;;;139.57;79.30;;;-0.50;1.00;;;;;;4963400;28;20043;-76
2023/12/20 04:07:56;;;;;;;147.73;83.55;;;-0.50;1.00;;;;;;4969713;28;20494;-75
2023/12/20 04:10:24;;;;;;;140.13;85.07;;;-0.50;1.00;;;;;;4964914;28;20073;-74
2023/12/20 04:12:51;;;;;;;148.10;88.47;;;-0.50;1.00;;;;;;4969795;28;20383;-74
2023/12/20 04:15:19;;;;;;;144.75;85.72;;;-0.40;1.00;;;;;;4954262;28;20051;-76
2023/12/20 04:17:46;;;;;;;142.48;83.70;;;-0.40;99.90;;;;;;4970775;28;20055;-75
2023/12/20 04:20:14;;;;;;;139.82;83.00;;;-0.40;99.90;;;;;;4967950;28;20035;-73
2023/12/20 04:22:43;;;;;;;144.05;85.40;;;-0.40;99.90;;;;;;4972421;28;20050;-78
2023/12/20 04:25:11;;;;;;;148.77;87.57;;;-0.40;42.70;;;;;;4976027;28;20049;-75
2023/12/20 04:27:38;;;;;;;151.43;90.55;;;-0.40;1.00;;;;;;4954348;28;20043;-75
2023/12/20 04:30:07;;;;;;;163.75;93.97;;;-0.50;99.90;;;;;;4968689;28;20047;-74
2023/12/20 04:32:36;;;;;;;173.25;97.25;;;-0.60;1.00;;;;;;4968342;28;20074;-74
2023/12/20 04:35:04;;;;;;;165.77;97.45;;;-0.50;1.00;;;;;;4967289;28;20043;-73
2023/12/20 04:37:31;;;;;;;170.15;100.38;;;-0.40;1.00;;;;;;4974468;28;20107;-74
2023/12/20 04:40:01;;;;;;;159.77;95.18;;;-0.40;99.90;;;;;;4953932;28;20054;-75
2023/12/20 04:42:28;;;;;;;127.97;77.13;;;-0.50;2.00;;;;;;4975816;28;20047;-73
2023/12/20 04:44:56;;;;;;;110.60;66.60;;;-0.40;99.90;;;;;;4964688;28;20031;-74
2023/12/20 04:47:23;;;;;;;124.93;73.55;;;-0.40;99.90;;;;;;4985594;28;20054;-75
2023/12/20 04:49:51;;;;;;;122.15;73.47;;;-0.50;99.90;;;;;;4985441;28;20042;-76
2023/12/20 04:52:19;;;;;;;131.20;75.70;;;-0.50;99.90;;;;;;4978647;28;20036;-78
2023/12/20 04:54:47;;;;;;;134.65;77.68;;;-0.50;99.90;;;;;;4974124;28;20318;-75
2023/12/20 04:57:16;;;;;;;141.85;82.15;;;-0.50;1.00;;;;;;4974576;28;20149;-75
2023/12/20 04:59:43;;;;;;;147.82;88.63;;;-0.60;1.00;;;;;;4949686;28;20229;-76
2023/12/20 05:02:11;;;;;;;145.57;87.53;;;-0.60;1.00;;;;;;4964104;28;20483;-75
2023/12/20 05:04:39;;;;;;;151.70;88.75;;;-0.60;1.00;;;;;;4947559;28;20126;-79
2023/12/20 05:07:06;;;;;;;140.25;81.55;;;-0.60;1.00;;;;;;4964730;28;20629;-73
2023/12/20 05:09:34;;;;;;;144.27;84.97;;;-0.70;1.00;;;;;;4947154;28;20054;-76
2023/12/20 05:12:01;;;;;;;143.38;83.85;;;-0.70;1.00;;;;;;4944342;28;20053;-76
2023/12/20 05:14:30;;;;;;;121.88;75.05;;;-0.60;99.90;;;;;;4965136;28;20039;-74
2023/12/20 05:16:58;;;;;;;118.13;69.80;;;-0.60;99.90;;;;;;4952623;28;20051;-77
2023/12/20 05:19:26;;;;;;;116.97;68.22;;;-0.50;1.00;;;;;;4947158;28;20431;-77
2023/12/20 05:21:53;;;;;;;112.07;66.35;;;-0.60;1.00;;;;;;4945467;28;20822;-75
2023/12/20 05:24:21;;;;;;;113.80;67.03;;;-0.60;1.00;;;;;;4963821;28;20055;-75
2023/12/20 05:26:49;;;;;;;116.60;65.38;;;-0.60;1.00;;;;;;4966660;28;20042;-74
2023/12/20 05:29:16;;;;;;;128.68;72.57;;;-0.60;1.00;;;;;;4963171;28;20077;-75
2023/12/20 05:31:45;;;;;;;119.50;70.38;;;-0.60;1.00;;;;;;4964604;28;20052;-77
2023/12/20 05:34:13;;;;;;;126.40;74.43;;;-0.50;1.00;;;;;;4950874;28;20065;-76
2023/12/20 05:36:40;;;;;;;125.75;75.45;;;-0.60;1.00;;;;;;4975090;28;20039;-77
2023/12/20 05:39:08;;;;;;;126.57;73.78;;;-0.60;1.00;;;;;;4955038;28;20055;-74
2023/12/20 05:41:36;;;;;;;135.48;80.70;;;-0.60;1.00;;;;;;4948338;28;20049;-75
2023/12/20 05:44:04;;;;;;;152.40;89.57;;;-0.50;15.50;;;;;;4946742;28;20115;-78
2023/12/20 05:46:31;;;;;;;130.10;80.40;;;-0.50;1.00;;;;;;4948897;28;20498;-77
2023/12/20 05:49:00;;;;;;;131.05;80.82;;;-0.50;1.00;;;;;;4965377;28;20059;-77
2023/12/20 05:51:27;;;;;;;150.57;91.97;;;-0.50;1.00;;;;;;4951849;28;20119;-75
2023/12/20 05:53:55;;;;;;;160.10;93.20;;;-0.50;1.00;;;;;;4953057;28;20114;-74
2023/12/20 05:56:23;;;;;;;148.90;90.25;;;-0.50;1.00;;;;;;4968667;28;20035;-73
2023/12/20 05:58:50;;;;;;;154.63;90.45;;;-0.50;1.00;;;;;;4965687;28;20062;-75
2023/12/20 06:01:18;;;;;;;142.48;81.65;;;-0.50;1.00;;;;;;4963588;28;20113;-76
2023/12/20 06:03:45;;;;;;;130.60;83.63;;;-0.50;1.00;;;;;;4968594;28;20106;-76
2023/12/20 06:06:14;;;;;;;148.90;90.13;;;-0.50;99.90;;;;;;4955140;28;20054;-75
2023/12/20 06:08:43;;;;;;;156.75;94.90;;;-0.60;99.90;;;;;;4950981;28;20439;-78
2023/12/20 06:11:10;;;;;;;157.80;96.22;;;-0.60;99.90;;;;;;4953632;28;20039;-76
2023/12/20 06:13:38;;;;;;;156.18;96.65;;;-0.60;99.90;;;;;;4965678;28;20052;-74
2023/12/20 06:16:07;;;;;;;161.55;98.05;;;-0.60;99.90;;;;;;4951301;28;20046;-76
2023/12/20 06:18:36;;;;;;;159.48;93.05;;;-0.60;99.90;;;;;;4965977;28;20101;-77
2023/12/20 06:21:04;;;;;;;164.55;99.10;;;-0.60;99.90;;;;;;4967802;28;20073;-73
2023/12/20 06:23:33;;;;;;;164.07;100.00;;;-0.60;99.90;;;;;;4950484;28;20059;-77
2023/12/20 06:26:01;;;;;;;163.65;99.63;;;-0.70;99.90;;;;;;4963935;28;20050;-76
2023/12/20 06:28:28;;;;;;;171.80;103.55;;;-0.70;99.90;;;;;;4966154;28;20043;-74
2023/12/20 06:30:56;;;;;;;185.75;111.40;;;-0.70;99.90;;;;;;4950440;28;20058;-75
2023/12/20 06:33:24;;;;;;;190.15;113.20;;;-0.70;99.90;;;;;;4969486;28;20070;-75
2023/12/20 06:35:52;;;;;;;179.13;108.05;;;-0.70;1.00;;;;;;4951334;28;20047;-76
2023/12/20 06:38:20;;;;;;;166.80;101.55;;;-0.80;1.00;;;;;;4950557;28;20050;-75
2023/12/20 06:40:50;;;;;;;248.30;144.18;;;-0.80;99.90;;;;;;4968073;28;20526;-75
2023/12/20 06:43:17;;;;;;;193.40;115.13;;;-0.70;1.00;;;;;;4949821;28;20104;-76
2023/12/20 06:45:46;;;;;;;194.90;113.63;;;-0.60;99.90;;;;;;4973594;28;20396;-76
2023/12/20 06:48:13;;;;;;;195.43;117.13;;;-0.50;1.00;;;;;;4956050;28;20083;-73
2023/12/20 06:50:41;;;;;;;212.05;126.15;;;-0.40;1.00;;;;;;4965768;28;20086;-75
2023/12/20 06:53:08;;;;;;;228.10;132.23;;;-0.30;1.00;;;;;;4954357;28;20039;-79
2023/12/20 06:55:37;;;;;;;237.40;139.30;;;-0.30;99.90;;;;;;4967693;28;20050;-74
2023/12/20 06:58:06;;;;;;;244.52;143.30;;;-0.40;99.90;;;;;;4965440;28;20062;-75
2023/12/20 07:00:34;;;;;;;264.23;149.90;;;-0.40;99.90;;;;;;4965927;28;20043;-80
2023/12/20 07:03:02;;;;;;;265.02;153.18;;;-0.30;49.30;;;;;;4957946;28;20097;-74
2023/12/20 07:05:29;;;;;;;258.98;151.05;;;-0.30;1.00;;;;;;4950156;28;20039;-75
2023/12/20 07:07:57;;;;;;;246.02;144.98;;;-0.30;1.00;;;;;;4951092;28;20054;-75
2023/12/20 07:10:25;;;;;;;249.75;146.07;;;-0.30;1.00;;;;;;4948596;28;20055;-74
2023/12/20 07:12:54;;;;;;;245.23;157.27;;;-0.20;1.00;;;;;;4948386;28;20043;-73
2023/12/20 07:15:24;;;;;;;261.15;152.43;;;-0.10;1.00;;;;;;4948923;28;20056;-73
2023/12/20 07:17:51;;;;;;;246.63;146.90;;;0.10;1.00;;;;;;4950256;28;20578;-75
2023/12/20 07:20:19;;;;;;;251.55;149.80;;;0.10;1.00;;;;;;4966918;28;20070;-77
2023/12/20 07:22:46;;;;;;;292.92;171.55;;;0.20;99.90;;;;;;4967006;28;20053;-75
2023/12/20 07:25:14;;;;;;;302.40;177.73;;;0.20;99.90;;;;;;4947929;28;20562;-76
2023/12/20 07:27:41;;;;;;;302.90;171.52;;;0.30;99.90;;;;;;4945525;28;20049;-77
2023/12/20 07:30:10;;;;;;;278.30;157.30;;;0.50;99.90;;;;;;4984531;28;20071;-76
2023/12/20 07:32:40;;;;;;;296.90;166.82;;;0.60;1.00;;;;;;4985638;28;20035;-75
2023/12/20 07:35:08;;;;;;;279.77;161.65;;;0.80;1.00;;;;;;4965637;28;20054;-75
2023/12/20 07:37:35;;;;;;;266.77;158.00;;;0.90;1.00;;;;;;4983516;28;20047;-74
2023/12/20 07:40:09;;;;;;;254.88;150.82;;;1.10;1.00;;;;;;4961426;28;20134;-76
2023/12/20 07:42:38;;;;;;;283.58;169.60;;;1.10;1.00;;;;;;4970391;28;20046;-76
2023/12/20 07:45:06;;;;;;;278.23;166.68;;;1.10;1.00;;;;;;4954614;28;20115;-78
2023/12/20 07:47:34;;;;;;;299.27;181.18;;;1.30;1.00;;;;;;4970861;28;20031;-75
2023/12/20 07:50:03;;;;;;;282.45;171.52;;;1.50;1.00;;;;;;4954962;28;20499;-77
2023/12/20 07:52:31;;;;;;;206.20;123.32;;;1.60;99.90;;;;;;4967001;28;20103;-73
2023/12/20 07:54:59;;;;;;;165.23;100.75;;;1.60;99.90;;;;;;4953356;28;20038;-75
2023/12/20 07:57:29;;;;;;;209.35;129.85;;;1.80;99.90;;;;;;4956481;28;20047;-75
2023/12/20 07:59:57;;;;;;;256.05;151.85;;;1.90;99.90;;;;;;4973101;28;20039;-77
2023/12/20 08:02:24;;;;;;;291.73;184.75;;;2.10;99.90;;;;;;4960477;28;20047;-77
2023/12/20 08:04:52;;;;;;;279.10;175.07;;;2.20;99.90;;;;;;4957646;28;20063;-74
2023/12/20 08:07:21;;;;;;;281.98;178.88;;;2.30;99.90;;;;;;4956621;28;20154;-75
2023/12/20 08:09:48;;;;;;;294.42;180.18;;;2.30;99.90;;;;;;4970396;28;20046;-73
2023/12/20 08:12:16;;;;;;;280.95;170.02;;;2.30;99.90;;;;;;4956120;28;20075;-75
2023/12/20 08:14:44;;;;;;;266.15;167.38;;;2.30;99.90;;;;;;4946005;28;20192;-75
2023/12/20 08:17:12;;;;;;;270.92;167.88;;;2.30;86.60;;;;;;4962616;28;20586;-75
2023/12/20 08:19:39;;;;;;;265.23;170.05;;;2.40;80.90;;;;;;4966393;28;20117;-76
2023/12/20 08:22:07;;;;;;;288.85;180.25;;;2.40;72.60;;;;;;4965821;28;20471;-77
2023/12/20 08:24:36;;;;;;;270.48;165.82;;;2.50;29.90;;;;;;4946962;28;20061;-75
2023/12/20 08:27:04;;;;;;;287.90;182.57;;;2.50;50.40;;;;;;4947192;28;20046;-78
2023/12/20 08:29:32;;;;;;;283.88;177.98;;;2.60;88.20;;;;;;4947711;28;20054;-77
2023/12/20 08:32:00;;;;;;;280.38;177.52;;;2.60;99.90;;;;;;4963241;28;20043;-77
2023/12/20 08:34:27;;;;;;;271.38;171.50;;;2.80;99.90;;;;;;4966452;28;20063;-77
2023/12/20 08:36:55;;;;;;;264.02;160.90;;;2.90;99.90;;;;;;4965403;28;20042;-75
2023/12/20 08:39:22;;;;;;;264.45;166.07;;;2.90;99.90;;;;;;4960493;28;20055;-76
2023/12/20 08:41:51;;;;;;;247.30;157.80;;;3.00;99.90;;;;;;4958313;28;20456;-75
2023/12/20 08:44:22;;;;;;;199.80;126.07;;;3.00;99.90;;;;;;4967453;28;20031;-76
2023/12/20 08:46:53;;;;;;;237.35;146.73;;;3.10;99.90;;;;;;4956905;28;20047;-77
2023/12/20 08:49:31;;;;;;;;;;;;;;;;;;;;;
2023/12/20 08:52:09;;;;;;;207.65;130.98;;;3.30;1.00;;;;;;4954970;28;20030;-76
2023/12/20 08:54:53;;;;;;;184.25;113.85;;;3.50;1.00;;;;;;4970610;28;20057;-77
2023/12/20 08:57:31;;;;;;;203.25;123.95;;;3.70;1.00;;;;;;4983383;28;20066;-75
2023/12/20 09:00:03;;;;;;;203.32;125.00;;;3.80;1.00;;;;;;4985836;28;20067;-76
2023/12/20 09:02:31;;;;;;;210.45;126.28;;;4.00;1.00;;;;;;4985186;28;20070;-79
2023/12/20 09:04:58;;;;;;;192.93;120.75;;;4.10;1.00;;;;;;4968707;28;20043;-77
2023/12/20 09:07:30;;;;;;;185.20;112.68;;;4.20;1.00;;;;;;4972887;28;20078;-77
2023/12/20 09:10:00;;;;;;;159.00;97.00;;;4.30;1.00;;;;;;4967433;28;20510;-78
2023/12/20 09:12:29;;;;;;;157.73;96.50;;;4.40;1.00;;;;;;4967941;28;20055;-78
2023/12/20 09:14:56;;;;;;;159.45;91.65;;;4.40;99.90;;;;;;4970037;28;20121;-79
2023/12/20 09:17:23;;;;;;;166.60;98.20;;;4.60;99.90;;;;;;4969293;28;20058;-78
2023/12/20 09:19:52;;;;;;;159.18;97.05;;;4.70;99.90;;;;;;4970361;28;20106;-79
2023/12/20 09:22:19;;;;;;;152.95;95.47;;;4.80;99.90;;;;;;4957978;28;20146;-77
2023/12/20 09:24:56;;;;;;;127.65;77.47;;;4.90;99.90;;;;;;4961985;28;20051;-81
2023/12/20 09:27:24;;;;;;;134.02;83.93;;;5.10;99.90;;;;;;4949729;28;20056;-78
2023/12/20 09:30:01;;;;;;;135.52;81.25;;;5.20;99.90;;;;;;4964860;29;20043;-79
2023/12/20 09:32:29;;;;;;;130.30;78.00;;;5.30;99.90;;;;;;4966436;28;20042;-78
2023/12/20 09:34:57;;;;;;;140.18;79.78;;;5.40;99.90;;;;;;4991406;28;20077;-77
2023/12/20 09:37:27;;;;;;;122.03;73.30;;;5.60;5.40;;;;;;4980723;28;20115;-78
2023/12/20 09:39:58;;;;;;;117.38;74.13;;;5.70;1.00;;;;;;4980022;28;20050;-78
2023/12/20 09:42:39;;;;;;;132.07;80.93;;;5.80;1.00;;;;;;4980436;28;20043;-78
2023/12/20 09:45:10;;;;;;;133.80;82.63;;;5.90;1.00;;;;;;4959255;28;20067;-77
2023/12/20 09:47:38;;;;;;;129.50;79.15;;;6.10;1.00;;;;;;4964872;28;20055;-78
2023/12/20 09:50:08;;;;;;;118.20;70.80;;;6.10;1.00;;;;;;4974090;28;20582;-76
2023/12/20 09:52:37;;;;;;;122.47;72.88;;;6.20;1.00;;;;;;4955530;28;20451;-78
2023/12/20 09:55:09;;;;;;;123.40;73.95;;;6.20;1.00;;;;;;4956594;28;20043;-77
2023/12/20 09:57:43;;;;;;;119.72;73.07;;;6.20;1.00;;;;;;4955995;29;20070;-78
2023/12/20 10:00:15;;;;;;;171.70;98.07;;;6.30;1.00;;;;;;4970882;28;20096;-78
2023/12/20 10:02:54;;;;;;;162.23;97.57;;;6.40;1.00;;;;;;4950944;28;20442;-78
2023/12/20 10:05:27;;;;;;;162.38;98.55;;;6.60;1.00;;;;;;4955222;28;20042;-77
2023/12/20 10:07:58;;;;;;;156.27;97.93;;;6.70;1.00;;;;;;4961181;28;20046;-77
2023/12/20 10:10:25;;;;;;;157.93;99.55;;;6.90;1.00;;;;;;4956807;28;20102;-77
2023/12/20 10:13:05;;;;;;;157.02;98.55;;;7.00;1.00;;;;;;4957984;28;20050;-76
2023/12/20 10:15:34;;;;;;;131.82;80.28;;;7.20;1.00;;;;;;4957156;28;20055;-76
2023/12/20 10:18:02;;;;;;;167.95;101.32;;;7.30;1.00;;;;;;4975723;28;20047;-78
2023/12/20 10:20:32;;;;;;;183.35;112.93;;;7.50;1.00;;;;;;4954708;28;20130;-80
2023/12/20 10:23:01;;;;;;;196.30;119.38;;;7.70;1.00;;;;;;4952368;29;20549;-79
2023/12/20 10:25:29;;;;;;;192.98;124.40;;;7.90;1.00;;;;;;4967109;28;20050;-78
2023/12/20 10:28:14;;;;;;;218.15;136.70;;;8.00;1.00;;;;;;4960173;28;20043;-77
2023/12/20 10:30:49;;;;;;;238.00;145.07;;;8.00;1.00;;;;;;4970642;28;20543;-77
2023/12/20 10:33:26;;;;;;;266.67;160.80;;;8.00;1.00;;;;;;4971997;28;20410;-77
2023/12/20 10:38:51;;;;;;;249.70;151.90;;;8.00;1.00;;;;;;4979881;28;20043;-78
2023/12/20 10:41:29;;;;;;;234.27;139.93;;;7.90;1.00;;;;;;4978908;28;20058;-77
2023/12/20 10:44:02;;;;;;;237.63;139.55;;;7.80;1.00;;;;;;4955335;28;20074;-77
2023/12/20 10:46:32;;;;;;;233.20;139.57;;;7.80;1.00;;;;;;4962141;28;20047;-75
2023/12/20 10:49:03;;;;;;;239.98;142.50;;;7.80;1.00;;;;;;4957210;28;20055;-76
2023/12/20 10:51:36;;;;;;;235.32;145.07;;;7.80;1.00;;;;;;4958642;28;20062;-78
2023/12/20 10:54:04;;;;;;;240.02;143.80;;;7.80;1.00;;;;;;4965272;28;20057;-79
2023/12/20 10:56:35;;;;;;;242.10;144.13;;;7.80;1.00;;;;;;4982326;28;20046;-78
2023/12/20 10:59:09;;;;;;;230.98;139.80;;;7.80;1.00;;;;;;4968248;28;20127;-77
2023/12/20 11:01:42;;;;;;;216.57;134.07;;;7.80;1.00;;;;;;4968871;28;20070;-78
2023/12/20 11:04:16;;;;;;;221.68;138.80;;;7.90;1.00;;;;;;4969663;28;20078;-77
2023/12/20 11:06:50;;;;;;;236.85;142.70;;;7.90;1.00;;;;;;4975625;28;20038;-78
2023/12/20 11:09:24;;;;;;;228.07;140.48;;;7.90;1.00;;;;;;4972123;28;20093;-77
2023/12/20 11:12:05;;;;;;;240.02;145.75;;;7.90;1.00;;;;;;4961454;28;20078;-78
2023/12/20 11:14:39;;;;;;;253.57;152.63;;;8.00;1.00;;;;;;4962517;28;20078;-78
2023/12/20 11:17:13;;;;;;;257.70;157.02;;;8.00;1.00;;;;;;4965217;28;20050;-77
2023/12/20 11:20:06;;;;;;;288.92;172.65;;;8.00;1.00;;;;;;4968330;28;20106;-78
2023/12/20 11:22:37;;;;;;;288.88;181.25;;;8.10;1.00;;;;;;4988546;28;20043;-79
2023/12/20 11:25:08;;;;;;;301.23;188.55;;;8.10;1.00;;;;;;4984903;28;20047;-78
2023/12/20 11:27:36;;;;;;;302.33;190.15;;;8.10;1.00;;;;;;4969222;28;20108;-78
2023/12/20 11:30:08;;;;;;;302.88;191.75;;;8.10;1.00;;;;;;4975776;28;20043;-78
2023/12/20 11:32:41;;;;;;;283.58;172.95;;;8.10;1.00;;;;;;4961538;28;20043;-77
2023/12/20 11:35:20;;;;;;;295.52;181.48;;;8.30;99.90;;;;;;4961854;28;20061;-78
2023/12/20 11:37:48;;;;;;;298.67;181.43;;;8.30;99.90;;;;;;4962672;28;20054;-77
2023/12/20 11:40:17;;;;;;;290.08;179.20;;;8.40;99.90;;;;;;4955416;28;20074;-77
2023/12/20 11:42:47;;;;;;;287.63;181.15;;;8.50;99.90;;;;;;4973989;28;20043;-78
2023/12/20 11:45:16;;;;;;;298.50;189.75;;;8.60;99.90;;;;;;4960074;28;20123;-78
2023/12/20 11:47:49;;;;;;;289.70;177.82;;;8.70;99.90;;;;;;4952120;28;20043;-77
2023/12/20 11:50:17;;;;;;;248.23;153.35;;;8.90;99.90;;;;;;4934147;28;20479;-78
2023/12/20 11:52:45;;;;;;;240.57;151.50;;;8.90;99.90;;;;;;4947865;29;20074;-78
2023/12/20 11:55:18;;;;;;;241.90;148.40;;;9.00;99.90;;;;;;4959574;28;20558;-80
2023/12/20 11:57:45;;;;;;;244.38;146.98;;;9.10;99.90;;;;;;4958635;28;20050;-78
2023/12/20 12:00:16;;;;;;;237.43;143.65;;;9.20;99.90;;;;;;4959080;29;20054;-76
2023/12/20 12:02:55;;;;;;;237.35;145.52;;;9.30;99.90;;;;;;4974485;28;20043;-76
2023/12/20 12:05:23;;;;;;;236.73;141.80;;;9.40;99.90;;;;;;4965578;28;20052;-79
2023/12/20 12:07:51;;;;;;;184.38;115.13;;;9.50;99.90;;;;;;4952215;28;20134;-78
2023/12/20 12:10:22;;;;;;;185.80;114.10;;;9.50;99.90;;;;;;4956123;28;20062;-77
2023/12/20 12:12:50;;;;;;;173.43;107.43;;;9.50;99.90;;;;;;4971548;28;20042;-78
2023/12/20 12:15:18;;;;;;;149.82;94.78;;;9.40;99.90;;;;;;4970383;28;20557;-78
2023/12/20 12:17:54;;;;;;;153.10;97.88;;;9.50;99.90;;;;;;4953022;28;20154;-78
2023/12/20 12:20:22;;;;;;;153.00;96.57;;;9.50;99.90;;;;;;4951260;28;20114;-78
2023/12/20 12:22:59;;;;;;;156.88;98.72;;;9.40;99.90;;;;;;4951983;28;20145;-81
2023/12/20 12:25:30;;;;;;;165.13;101.97;;;9.40;99.90;;;;;;4961829;28;20059;-79
2023/12/20 12:28:07;;;;;;;172.32;111.03;;;9.40;99.90;;;;;;4969074;28;20031;-79
2023/12/20 12:30:43;;;;;;;205.45;124.85;;;9.40;99.90;;;;;;4976592;28;20035;-78
2023/12/20 12:33:21;;;;;;;191.63;124.15;;;9.40;99.90;;;;;;4974823;28;20113;-76
2023/12/20 12:35:52;;;;;;;229.57;140.23;;;9.30;99.90;;;;;;4972491;28;20042;-79